• Join FlightAware (Why Join?)
  • Login
  • US Flag 
03:28PM EDT


 

Airport Tracker/Info


-or-


 

Live Flight TrackerFlight Track Log ✈ FDX1198 ✈ 24-Dec-2013 ✈ KMSY - KIAH

Flight Track Log - Related Links

Times and Time Zones

All times are in EST time to prevent confusion due to time zone crossing. See the FDX1198 flight status page for this flight to view local times or setup timezone preferences in your user account.

Time Position Orientation Groundspeed Altitude Reporting Facility
EST Latitude Longitude Course Direction KTS MPH feet Rate Location/Type
08:53AM 30.0011 -90.2481 21° North 140 161 900  Level Houston Center
08:53AM 30.0150 -90.2419 21° North 182 209 2,100 3,000 Climbing Houston Center
08:54AM 30.0497 -90.2750 321° Northwest 245 282 5,100 3,540 Climbing Houston Center
08:55AM 30.0111 -90.3492 239° Southwest 267 307 9,300 3,480 Climbing Houston Center
08:56AM 29.9658 -90.4306 237° Southwest 296 341 12,200 2,940 Climbing Houston Center
08:57AM 29.9092 -90.5292 236° Southwest 362 417 15,300 1,980 Climbing Houston Center
09:03AM 29.6285 -91.2075 236° Southwest 394 453 26,000 1,680 Climbing FlightAware ADS-B
09:04AM 29.6201 -91.2702 261° West 398 458 26,000  Level FlightAware ADS-B
09:05AM 29.6038 -91.3942 261° West 399 459 26,000  Level FlightAware ADS-B
09:05AM 29.5938 -91.4679 261° West 399 459 26,000  Level FlightAware ADS-B
09:10AM 29.5109 -92.0722 261° West 402 463 26,000  Level FlightAware ADS-B
09:14AM 29.4600 -92.5367 263° West 403 464 26,000  Level FlightAware ADS-B
09:14AM 29.4632 -92.6028 273° West 404 465 26,000  Level FlightAware ADS-B
09:15AM 29.4666 -92.6692 273° West 404 465 26,000  Level FlightAware ADS-B
09:15AM 29.4697 -92.7334 273° West 404 465 26,000  Level FlightAware ADS-B
09:16AM 29.4728 -92.7997 273° West 404 465 26,000  Level FlightAware ADS-B
09:16AM 29.4757 -92.8661 273° West 404 465 26,000  Level FlightAware ADS-B
09:17AM 29.4786 -92.9326 273° West 405 466 26,000  Level FlightAware ADS-B
09:17AM 29.4814 -92.9970 273° West 405 466 26,000  Level FlightAware ADS-B
09:18AM 29.4843 -93.0635 273° West 405 466 26,000  Level FlightAware ADS-B
09:18AM 29.4871 -93.1279 273° West 404 465 26,000  Level FlightAware ADS-B
09:19AM 29.4898 -93.1942 273° West 404 465 26,000  Level FlightAware ADS-B
09:19AM 29.4926 -93.2605 273° West 403 464 26,000  Level FlightAware ADS-B
09:20AM 29.4954 -93.3246 273° West 403 464 26,000  Level FlightAware ADS-B
09:20AM 29.4981 -93.3909 273° West 402 463 26,000  Level FlightAware ADS-B
09:21AM 29.5007 -93.4550 273° West 402 463 26,000  Level FlightAware ADS-B
09:21AM 29.5013 -93.4719 272° West 403 464 26,000  Level FlightAware ADS-B
09:22AM 29.5033 -93.5210 273° West 403 464 26,000  Level FlightAware ADS-B
09:22AM 29.5058 -93.5851 273° West 403 464 26,000  Level FlightAware ADS-B
09:22AM 29.5066 -93.6045 273° West 404 465 26,000  Level FlightAware ADS-B
09:23AM 29.5083 -93.6493 272° West 402 463 26,000  Level FlightAware ADS-B
09:23AM 29.5109 -93.7153 273° West 402 463 26,000  Level FlightAware ADS-B
09:23AM 29.5115 -93.7304 272° West 403 464 26,000  Level FlightAware ADS-B
09:24AM 29.5133 -93.7794 272° West 403 464 26,000 -420 Level FlightAware ADS-B
09:24AM 29.5141 -93.7988 273° West 407 468 25,800 -1,800 Descending FlightAware ADS-B
09:24AM 29.5158 -93.8461 272° West 400 460 25,100 -2,040 Descending FlightAware ADS-B
09:24AM 29.5160 -93.8502 273° West 400 460 25,000 -3,420 Descending FlightAware ADS-B
09:25AM 29.5182 -93.9094 272° West 401 461 23,400 -3,480 Descending FlightAware ADS-B
09:25AM 29.5191 -93.9329 272° West 408 470 22,800 -3,900 Descending FlightAware ADS-B
09:25AM 29.5206 -93.9746 272° West 413 475 21,400 -4,140 Descending FlightAware ADS-B
09:25AM 29.5221 -94.0162 272° West 413 475 20,200 -3,840 Descending FlightAware ADS-B
09:26AM 29.5230 -94.0422 272° West 411 473 19,500 -3,660 Descending FlightAware ADS-B
09:26AM 29.5254 -94.1071 272° West 404 465 17,600 -3,540 Descending FlightAware ADS-B
09:26AM 29.5259 -94.1221 272° West 403 464 16,700 -3,000 Descending FlightAware ADS-B
09:27AM 29.5277 -94.1726 272° West 390 449 16,100 -3,000 Descending FlightAware ADS-B
09:27AM 29.5294 -94.2217 272° West 384 442 14,800 -3,240 Descending FlightAware ADS-B
09:27AM 29.5299 -94.2359 272° West 382 440 14,400 -3,240 Descending FlightAware ADS-B
09:27AM 29.5315 -94.2841 272° West 377 434 13,200 -2,820 Descending FlightAware ADS-B
09:28AM 29.5320 -94.2978 272° West 367 422 13,000 -1,920 Descending FlightAware ADS-B
09:28AM 29.5329 -94.3148 273° West 351 404 12,700 -1,380 Descending FlightAware ADS-B
09:28AM 29.5361 -94.3379 279° West 334 384 12,500 -720 Descending FlightAware ADS-B
09:28AM 29.5409 -94.3564 287° West 327 376 12,400 -600 Descending FlightAware ADS-B
09:28AM 29.5460 -94.3727 290° West 324 373 12,300 -720 Descending FlightAware ADS-B
09:28AM 29.5507 -94.3836 296° West 327 376 12,200 -1,620 Descending FlightAware ADS-B
09:29AM 29.5658 -94.4198 296° West 329 379 11,500 -1,980 Descending FlightAware ADS-B
09:29AM 29.5860 -94.4664 297° West 323 372 10,500 -1,980 Descending FlightAware ADS-B
09:29AM 29.5793 -94.4510 116° Southeast 323 372 10,400 -1,440 Descending FlightAware ADS-B
09:30AM 29.6002 -94.4998 296° West 312 359 10,000 -1,320 Descending FlightAware ADS-B
09:30AM 29.6095 -94.5218 296° West 302 348 9,700 -1,140 Descending FlightAware ADS-B
09:30AM 29.6164 -94.5373 297° West 295 339 9,500 -840 Descending FlightAware ADS-B
09:30AM 29.6180 -94.5416 293° West 293 337 9,500 -420 Level FlightAware ADS-B
09:30AM 29.6252 -94.5580 297° West 281 323 9,400 -480 Descending FlightAware ADS-B
09:31AM 29.6336 -94.5788 295° West 266 306 9,300 -840 Descending FlightAware ADS-B
09:31AM 29.6416 -94.5976 296° West 263 303 9,000 -1,440 Descending FlightAware ADS-B
09:31AM 29.6498 -94.6164 297° West 262 302 8,600 -1,440 Descending FlightAware ADS-B
09:31AM 29.6578 -94.6352 296° West 263 303 8,300 -1,200 Descending FlightAware ADS-B
09:31AM 29.6616 -94.6425 301° West 263 303 8,200 -1,200 Descending FlightAware ADS-B
09:32AM 29.6639 -94.6461 306° West 263 303 8,100 -1,500 Descending FlightAware ADS-B
09:32AM 29.6669 -94.6518 301° West 262 302 8,000 -1,740 Descending FlightAware ADS-B
09:32AM 29.6694 -94.6552 310° West 262 302 7,900 -1,500 Descending FlightAware ADS-B
09:32AM 29.6731 -94.6605 309° West 261 300 7,800 -1,020 Descending FlightAware ADS-B
09:32AM 29.6734 -94.6605 357° North 262 302 7,800 -1,200 Level FlightAware ADS-B
09:32AM 29.6774 -94.6645 319° Northwest 261 300 7,700 -1,440 Descending FlightAware ADS-B
09:32AM 29.6878 -94.6773 313° West 260 299 7,400 -1,500 Descending FlightAware ADS-B
09:32AM 29.6913 -94.6811 317° Northwest 259 298 7,300 -1,320 Descending FlightAware ADS-B
09:32AM 29.7044 -94.6953 317° Northwest 257 296 7,000 -1,380 Descending FlightAware ADS-B
09:33AM 29.7144 -94.7067 315° West 257 296 6,700 -1,620 Descending FlightAware ADS-B
09:33AM 29.7174 -94.7095 320° Northwest 255 293 6,600 -1,680 Descending FlightAware ADS-B
09:33AM 29.7274 -94.7208 315° West 257 296 6,200 -1,620 Descending FlightAware ADS-B
09:33AM 29.7303 -94.7237 319° Northwest 256 295 6,200 -1,140 Level FlightAware ADS-B
09:33AM 29.7438 -94.7388 316° Northwest 262 302 5,900 -1,200 Descending FlightAware ADS-B
09:33AM 29.7573 -94.7534 317° Northwest 263 303 5,600 -1,140 Descending FlightAware ADS-B
09:33AM 29.7628 -94.7592 317° Northwest 264 304 5,500 -840 Descending FlightAware ADS-B
09:34AM 29.7707 -94.7679 316° Northwest 262 302 5,400 -1,020 Descending FlightAware ADS-B
09:34AM 29.7792 -94.7776 315° West 263 303 5,200 -1,200 Descending FlightAware ADS-B
09:34AM 29.7846 -94.7834 317° Northwest 261 300 5,100 -780 Descending FlightAware ADS-B
09:34AM 29.7850 -94.7843 298° West 262 302 5,100 -780 Level FlightAware ADS-B
09:34AM 29.7980 -94.7986 316° Northwest 259 298 4,900 -1,020 Descending FlightAware ADS-B
09:34AM 29.8066 -94.8081 316° Northwest 257 296 4,700 -1,200 Descending FlightAware ADS-B
09:34AM 29.8111 -94.8128 318° Northwest 255 293 4,600 -900 Descending FlightAware ADS-B
09:35AM 29.8241 -94.8268 317° Northwest 252 290 4,400 -900 Descending FlightAware ADS-B
09:35AM 29.8284 -94.8316 316° Northwest 252 290 4,300 -1,500 Descending FlightAware ADS-B
09:35AM 29.8297 -94.8335 309° West 252 290 4,200 -2,040 Descending FlightAware ADS-B
09:35AM 29.8330 -94.8375 313° West 250 288 4,100 -1,500 Descending FlightAware ADS-B
09:35AM 29.8359 -94.8416 309° West 251 289 4,000 -1,200 Descending FlightAware ADS-B
09:35AM 29.8398 -94.8481 305° West 250 288 3,900 -1,380 Descending FlightAware ADS-B
09:35AM 29.8420 -94.8526 299° West 250 288 3,800 -1,500 Descending FlightAware ADS-B
09:35AM 29.8426 -94.8538 302° West 251 289 3,800 -1,500 Level FlightAware ADS-B
09:35AM 29.8444 -94.8573 300° West 250 288 3,700 -1,380 Descending FlightAware ADS-B
09:35AM 29.8474 -94.8630 301° West 248 285 3,600 -780 Descending FlightAware ADS-B
09:35AM 29.8532 -94.8758 298° West 248 285 3,500 -420 Descending FlightAware ADS-B
09:35AM 29.8559 -94.8803 304° West 246 283 3,500 -360 Level FlightAware ADS-B
09:36AM 29.8634 -94.8964 298° West 247 284 3,400 -420 Descending FlightAware ADS-B
09:36AM 29.8643 -94.8986 294° West 246 283 3,400 -420 Level FlightAware ADS-B
09:36AM 29.8728 -94.9159 300° West 245 282 3,300 -360 Descending FlightAware ADS-B
09:36AM 29.8740 -94.9181 301° West 244 281 3,300 -840 Level FlightAware ADS-B
09:36AM 29.8810 -94.9328 299° West 239 275 3,100 -1,140 Descending FlightAware ADS-B
09:36AM 29.8857 -94.9427 299° West 236 272 2,900 -840 Descending FlightAware ADS-B
09:36AM 29.8889 -94.9492 300° West 232 267 2,900 -840 Level FlightAware ADS-B
09:37AM 29.8938 -94.9600 298° West 228 262 2,700 -1,020 Descending FlightAware ADS-B
09:37AM 29.8945 -94.9610 310° West 228 262 2,700 -840 Level FlightAware ADS-B
09:37AM 29.9014 -94.9757 298° West 222 255 2,500 -720 Descending FlightAware ADS-B
09:37AM 29.9031 -94.9787 303° West 221 254 2,500 -840 Level FlightAware ADS-B
09:37AM 29.9090 -94.9910 299° West 217 250 2,300 -1,200 Descending FlightAware ADS-B
09:37AM 29.9163 -95.0062 299° West 217 250 2,000 -1,140 Descending FlightAware ADS-B
09:38AM 29.9242 -95.0234 298° West 217 250 1,700 -960 Descending FlightAware ADS-B
09:38AM 29.9244 -95.0234 North 217 250 1,700 -840 Level FlightAware ADS-B
09:38AM 29.9318 -95.0387 299° West 217 250 1,500 -1,140 Descending FlightAware ADS-B
09:38AM 29.9320 -95.0397 284° West 218 251 1,400 -420 Descending FlightAware ADS-B
09:38AM 29.9392 -95.0549 299° West 214 246 1,400  Level FlightAware ADS-B
09:38AM 29.9426 -95.0618 300° West 212 244 1,400  Level FlightAware ADS-B
09:38AM 29.9464 -95.0696 299° West 208 239 1,400  Level FlightAware ADS-B
09:39AM 29.9499 -95.0765 301° West 208 239 1,400  Level FlightAware ADS-B
09:39AM 29.9538 -95.0852 297° West 211 243 1,400  Level FlightAware ADS-B
09:39AM 29.9613 -95.1004 300° West 218 251 1,400  Level FlightAware ADS-B
09:39AM 29.9693 -95.1177 298° West 217 250 1,400  Level FlightAware ADS-B
09:39AM 29.9681 -95.1148 115° Southeast 213 245 1,400  Level FlightAware ADS-B
09:39AM 29.9737 -95.1276 297° West 206 237 1,400  Level FlightAware ADS-B
09:39AM 29.9749 -95.1317 289° West 202 232 1,400  Level FlightAware ADS-B
09:40AM 29.9742 -95.1287 104° East 204 235 1,400  Level FlightAware ADS-B
09:40AM 29.9758 -95.1358 284° West 197 227 1,400  Level FlightAware ADS-B
09:40AM 29.9762 -95.1379 281° West 196 226 1,400  Level FlightAware ADS-B
09:40AM 29.9769 -95.1450 277° West 193 222 1,400  Level FlightAware ADS-B
09:40AM 29.9776 -95.1561 274° West 187 215 1,400  Level FlightAware ADS-B
09:40AM 29.9777 -95.1675 271° West 175 201 1,400  Level FlightAware ADS-B
09:40AM 29.9776 -95.1767 269° West 171 197 1,400  Level FlightAware ADS-B
09:41AM 29.9776 -95.1903 270° West 170 196 1,400 -240 Level FlightAware ADS-B
09:41AM 29.9776 -95.2049 270° West 168 193 1,300 -600 Descending FlightAware ADS-B
09:41AM 29.9776 -95.2189 270° West 153 176 1,100 -900 Descending FlightAware ADS-B
09:41AM 29.9775 -95.2320 269° West 140 161 800 -960 Descending FlightAware ADS-B
09:42AM 29.9776 -95.2427 271° West 131 151 600 -780 Descending FlightAware ADS-B
09:42AM 29.9776 -95.2537 270° West 127 146 400 -600 Descending FlightAware ADS-B
09:42AM 29.9776 -95.2638 270° West 126 145 300 -600 Descending FlightAware ADS-B
09:42AM 29.9776 -95.2746 270° West 126 145 100 -840 Descending FlightAware ADS-B
09:43AM 29.9776 -95.2966 270° West 121 139 -240 Descending FlightAware ADS-B